Aklavik, Canada
Current Conditions -  °F | °C
As of 3:00 AM on Thursday 27 Nov 2014 (Local Time) from CYEV Reporting Station
Ice Pellets Ice Pellets  
Wind Chill: -25°   Ceiling: Unl
Heat Index: -13°   Visibility: 15mi
Dew Point: -18°   Wind: 5mph
Humidity: 77%   Direction: 60°ENE
Pressure: 30.64"   Gusts: NA
Location:  68.22°N, 135°W
Report Text: CYEV 271000Z 06004KT 050V130 15SM IC SKC M25/M28 A3064 RMK FROIN SLP388
Loading
Personal Weather Stations






























Interactive Weather Map New forecast layout! Learn more

10-Day Weather Forecast

Advertisements
Track Severe Weather on mobile